Freysville, Pennsylvania
Current Conditions -  °F | °C
As of 3:53 PM on Friday 24 Oct 2014 (Local Time) from KTHV Reporting Station
Clear Clear  
Wind Chill: 66°   Ceiling: Unl
Heat Index: 66°   Visibility: 10mi
Dew Point: 32°   Wind: 13mph
Humidity: 28%   Direction: 300°WNW
Pressure: 29.88"   Gusts: 22mph
Location:  39.8974°N, 76.608°W
Report Text: KTHV 241953Z AUTO 30011G19KT 10SM CLR 19/00 A2988 RMK AO2 SLP119 T01890000
Loading
Personal Weather Stations






























Interactive Weather Map
Tropical Storm Tracking
New forecast layout! Learn more

10-Day Weather Forecast

Advertisements
Track Severe Weather on mobile